Time;durP1;ratioP1;P1;durP2;ratioP2;P2;SDS_P1;SDS_P2;PMS_P1;PMS_P2;Temp;Humidity;BMP_temperature;BMP_pressure;BME280_temperature;BME280_humidity;BME280_pressure;Samples;Min_cycle;Max_cycle;Signal;HPM_P1;HPM_P2
2022/06/21 00:01:34;;;;;;;;;11.00;8.67;;;;;22.02;45.37;100933.38;5058465;28;45487;-92
2022/06/21 00:04:01;;;;;;;;;10.00;10.00;;;;;22.01;44.89;100930.78;5028065;28;45402;-91
2022/06/21 00:07:16;;;;;;;;;10.33;7.00;;;;;22.74;45.54;101060.03;5033402;28;48053;-91
2022/06/21 00:24:51;;;;;;;;;7.00;7.00;;;;;21.45;45.35;100854.31;5790601;23;46373;-93
2022/06/21 00:29:55;;;;;;;;;7.00;7.00;;;;;22.55;45.21;101017.38;6215937;22;74379;-90
2022/06/21 00:41:34;;;;;;;;;6.67;6.67;;;;;22.45;45.66;101031.91;5363055;23;46721;-90
2022/06/21 00:58:30;;;;;;;;;;;;;;;;;;;;;
2022/06/21 01:12:31;;;;;;;;;;;;;;;;;;;;;
2022/06/21 02:30:36;;;;;;;;;5.33;4.00;;;;;22.09;46.52;101100.16;5070456;28;45515;-91
2022/06/21 02:43:54;;;;;;;;;5.33;5.33;;;;;20.62;46.51;100790.13;6143281;22;46443;-92
2022/06/21 03:57:33;;;;;;;;;6.67;5.00;;;;;21.07;47.03;100760.03;4994848;28;45947;-90
2022/06/21 04:00:09;;;;;;;;;5.67;5.00;;;;;20.86;47.38;100730.25;4995158;28;45546;-90
2022/06/21 04:09:33;;;;;;;;;5.00;5.00;;;;;21.05;48.26;100749.34;5037001;28;45819;-90
2022/06/21 04:20:45;;;;;;;;;10.00;6.33;;;;;20.90;50.96;100758.81;5537278;22;45794;-92
2022/06/21 04:23:53;;;;;;;;;;;;;;;;;;;;;
2022/06/21 04:27:22;;;;;;;;;10.67;7.67;;;;;21.33;51.94;100839.09;5019316;28;68977;-93
2022/06/21 04:48:15;;;;;;;;;7.00;6.00;;;;;21.16;54.65;100815.28;4268758;22;46373;-90
2022/06/21 04:50:47;;;;;;;;;8.33;7.33;;;;;20.69;55.35;100749.81;5049689;28;46460;-92
2022/06/21 04:53:47;;;;;;;;;9.33;8.33;;;;;20.86;55.55;100787.13;5052111;28;46359;-91
2022/06/21 04:56:55;;;;;;;;;8.00;6.33;;;;;21.02;54.79;100820.06;5040949;28;45689;-90
2022/06/21 04:59:27;;;;;;;;;7.00;7.00;;;;;20.10;55.25;100660.03;5149374;22;45577;-90
2022/06/21 05:01:53;;;;;;;;;7.00;7.00;;;;;20.95;54.82;100815.31;5052465;28;45436;-90
2022/06/21 05:04:23;;;;;;;;;9.00;8.00;;;;;20.85;55.58;100798.97;5256538;22;46610;-94
2022/06/21 05:22:27;;;;;;;;;9.33;8.67;;;;;20.78;55.78;100885.34;5131576;22;45994;-95
2022/06/21 05:30:59;;;;;;;;;8.33;8.33;;;;;20.75;56.48;100865.78;5339134;22;46270;-86
2022/06/21 05:52:17;;;;;;;;;10.00;7.00;;;;;19.47;54.06;100623.88;5093671;22;45819;-93
2022/06/21 05:54:50;;;;;;;;;8.33;7.33;;;;;19.95;55.14;100716.31;5049737;28;45561;-88
2022/06/21 06:08:45;;;;;;;;;11.67;10.00;;;;;21.06;53.71;100858.59;5493580;22;45540;-89
2022/06/21 06:17:59;;;;;;;;;9.67;8.33;;;;;21.16;53.12;100872.22;5184777;22;45528;-89
2022/06/21 06:20:36;;;;;;;;;8.67;8.67;;;;;21.15;52.81;100865.09;5027352;28;45473;-84
2022/06/21 06:26:43;;;;;;;;;9.67;8.00;;;;;20.16;52.41;100672.22;5136083;22;45634;-86
2022/06/21 06:32:44;;;;;;;;;9.67;8.00;;;;;20.34;53.94;100667.03;5402846;22;45615;-92
2022/06/21 06:35:20;;;;;;;;;8.33;8.33;;;;;20.97;52.23;100769.97;5302578;22;45766;-89
2022/06/21 06:37:46;;;;;;;;;7.00;7.00;;;;;20.94;52.96;100768.38;5011463;28;47089;-87
2022/06/21 06:40:40;;;;;;;;;12.00;8.67;;;;;21.42;53.05;100860.00;5029880;28;45414;-85
2022/06/21 06:46:34;;;;;;;;;7.33;7.33;;;;;21.43;51.29;100864.44;5195312;22;45542;-87
2022/06/21 06:49:29;;;;;;;;;7.67;7.67;;;;;21.29;52.27;100862.88;5064728;28;46181;-87
2022/06/21 06:52:02;;;;;;;;;9.67;9.67;;;;;21.42;51.90;100879.00;5056707;28;45516;-88
2022/06/21 06:54:43;;;;;;;;;12.00;10.33;;;;;21.53;52.68;100874.47;5070521;28;45426;-84
2022/06/21 06:57:15;;;;;;;;;8.33;8.33;;;;;20.90;51.35;100769.63;5074803;28;45452;-88
2022/06/21 06:59:43;;;;;;;;;7.33;6.67;;;;;21.15;51.33;100806.31;5071861;27;47855;-87
2022/06/21 07:08:57;;;;;;;;;9.33;9.33;;;;;21.81;51.97;100872.88;5140815;22;45637;-88
2022/06/21 07:14:36;;;;;;;;;11.67;11.33;;;;;20.62;50.81;100674.50;5072890;22;45393;-86
2022/06/21 07:17:39;;;;;;;;;10.67;9.00;;;;;21.95;50.77;100894.22;5035181;28;45664;-85
2022/06/21 07:20:56;;;;;;;;;12.33;10.33;;;;;20.71;50.68;100697.25;5024238;28;45600;-85
2022/06/21 07:23:25;;;;;;;;;9.00;9.00;;;;;21.98;50.78;100887.66;5021053;28;46723;-88
2022/06/21 07:26:28;;;;;;;;;8.67;8.67;;;;;22.18;50.58;100905.72;5047070;28;45511;-87
2022/06/21 07:29:18;;;;;;;;;14.00;10.67;;;;;22.21;50.25;100900.03;5049112;28;45459;-89
2022/06/21 07:31:49;;;;;;;;;11.33;10.67;;;;;21.50;50.50;100769.84;5048385;28;45770;-89
2022/06/21 07:34:31;;;;;;;;;9.67;9.67;;;;;22.37;50.35;100902.22;5052963;28;46279;-89
2022/06/21 07:40:30;;;;;;;;;8.33;8.33;;;;;21.93;49.48;100755.94;5416832;22;47130;-95
2022/06/21 07:43:39;;;;;;;;;11.67;8.67;;;;;22.44;49.48;100823.78;5035345;28;45421;-93
2022/06/21 07:46:11;;;;;;;;;9.33;9.33;;;;;22.23;48.95;100796.75;4991195;28;45513;-91
2022/06/21 07:48:42;;;;;;;;;8.67;8.33;;;;;22.99;49.43;100886.56;4979508;28;45605;-94
2022/06/21 07:51:18;;;;;;;;;12.67;10.00;;;;;22.51;48.88;100806.75;4978396;28;45434;-95
2022/06/21 07:53:54;;;;;;;;;11.00;10.00;;;;;22.85;48.66;100830.78;4993445;28;45378;-94
2022/06/21 07:56:49;;;;;;;;;10.33;10.33;;;;;23.40;48.30;100914.44;4977338;28;47401;-90
2022/06/21 08:08:20;;;;;;;;;14.67;11.33;;;;;23.10;47.58;100771.38;5066951;22;45437;-91
2022/06/21 08:11:39;;;;;;;;;9.00;8.33;;;;;22.76;47.21;100703.91;5050138;28;45599;-94
2022/06/21 08:24:55;;;;;;;;;11.67;10.00;;;;;24.08;47.14;100916.09;5010243;28;45578;-93
2022/06/21 08:27:26;;;;;;;;;19.67;14.00;;;;;24.00;48.06;100890.47;5006076;28;45494;-93
2022/06/21 08:36:55;;;;;;;;;13.00;11.33;;;;;24.68;46.41;100937.41;4991348;28;45447;-94
2022/06/21 08:39:31;;;;;;;;;9.33;9.33;;;;;23.59;46.16;100726.63;5007088;28;45572;-94
2022/06/21 08:42:27;;;;;;;;;17.33;11.33;;;;;24.86;46.06;100921.94;4994648;28;45586;-93
2022/06/21 08:52:25;;;;;;;;;10.33;9.67;;;;;24.38;45.55;100727.78;4970901;28;45549;-94
2022/06/21 08:55:12;;;;;;;;;11.00;8.33;;;;;25.42;45.25;100903.50;5287579;22;45665;-93
2022/06/21 09:01:31;;;;;;;;;;;;;;;;;;;;;
2022/06/21 09:04:06;;;;;;;;;13.67;11.33;;;;;24.90;45.56;100857.03;5019584;28;67686;-92
2022/06/21 09:06:46;;;;;;;;;9.67;8.33;;;;;25.10;46.03;100901.34;5017397;28;45631;-91
2022/06/21 09:09:48;;;;;;;;;14.33;10.67;;;;;25.09;46.48;100895.03;5014640;28;46693;-92
2022/06/21 09:12:32;;;;;;;;;10.67;8.33;;;;;25.09;46.35;100897.75;5017712;28;45402;-93
2022/06/21 09:15:16;;;;;;;;;11.00;9.67;;;;;25.06;45.91;100898.09;5022750;28;45470;-94
2022/06/21 09:21:10;;;;;;;;;8.00;8.00;;;;;24.70;46.15;100846.31;5021262;28;45681;-93
2022/06/21 09:27:48;;;;;;;;;;;;;;;;;;;;;
2022/06/21 09:33:56;;;;;;;;;9.67;9.00;;;;;26.32;44.70;100904.00;5055903;28;45378;-93
2022/06/21 09:36:33;;;;;;;;;9.00;9.00;;;;;25.34;43.95;100710.56;5053634;28;45502;-94
2022/06/21 09:42:56;;;;;;;;;11.00;10.00;;;;;27.32;43.48;100898.50;5837486;22;47040;-95
2022/06/21 09:45:59;;;;;;;;;9.67;9.67;;;;;28.08;42.10;100891.66;5078827;28;46609;-94
2022/06/21 09:48:38;;;;;;;;;11.33;9.33;;;;;28.22;40.77;100816.06;5039543;28;45228;-94
2022/06/21 09:51:37;;;;;;;;;10.00;9.00;;;;;28.83;40.33;100885.59;5068575;28;45464;-94
2022/06/21 09:54:15;;;;;;;;;10.67;10.67;;;;;28.60;39.32;100822.50;5075780;28;45607;-94
2022/06/21 09:56:51;;;;;;;;;15.67;11.00;;;;;29.30;38.83;100880.06;5166052;22;46476;-94
2022/06/21 10:11:23;;;;;;;;;13.67;12.00;;;;;29.45;36.43;100678.59;5058613;28;45460;-94
2022/06/21 10:16:57;;;;;;;;;11.33;11.00;;;;;30.87;35.85;100855.91;5336838;22;46340;-94
2022/06/21 10:19:54;;;;;;;;;11.33;11.33;;;;;30.24;35.91;100768.47;5058607;28;47480;-95
2022/06/21 10:22:31;;;;;;;;;11.00;9.33;;;;;30.94;36.43;100847.72;5082369;22;45549;-95
2022/06/21 10:38:32;;;;;;;;;9.33;9.33;;;;;32.66;34.69;100833.19;5747819;22;46826;-96
2022/06/21 10:53:03;;;;;;;;;9.00;9.00;;;;;33.58;32.46;100770.69;5446397;23;45844;-95
2022/06/21 11:14:28;;;;;;;;;8.00;8.00;;;;;33.38;31.08;100600.22;5961913;22;46517;-90
2022/06/21 11:24:11;;;;;;;;;9.33;7.33;;;;;34.55;30.75;100792.72;5072261;27;45584;-90
2022/06/21 11:27:14;;;;;;;;;9.00;8.00;;;;;34.52;31.04;100796.78;5072552;27;45920;-91
2022/06/21 11:30:32;;;;;;;;;7.67;7.67;;;;;34.37;31.08;100793.47;5072931;27;45569;-90
2022/06/21 11:36:39;;;;;;;;;13.33;12.67;;;;;33.22;31.83;100636.63;5071960;27;45862;-90
2022/06/21 11:55:00;;;;;;;;;22.67;15.33;;;;;32.47;32.43;100603.03;5143800;22;58054;-90
2022/06/21 12:09:55;;;;;;;;;8.67;7.33;;;;;33.19;33.30;100803.69;5441750;22;47329;-90
2022/06/21 12:19:10;;;;;;;;;9.00;8.00;;;;;32.38;33.08;100713.63;5071068;28;45546;-90
2022/06/21 12:22:16;;;;;;;;;7.33;7.33;;;;;32.77;33.46;100786.47;5069110;28;45864;-91
2022/06/21 12:24:42;;;;;;;;;22.33;17.00;;;;;32.27;33.42;100714.25;5071184;28;45477;-91
2022/06/21 12:27:11;;;;;;;;;9.33;8.33;;;;;32.55;33.62;100760.16;5057604;28;45665;-89
2022/06/21 12:29:37;;;;;;;;;11.67;9.67;;;;;32.21;33.20;100704.06;5059046;28;46114;-91
2022/06/21 12:32:17;;;;;;;;;7.33;7.33;;;;;32.23;33.61;100701.94;5071529;28;46820;-89
2022/06/21 12:38:12;;;;;;;;;9.00;7.67;;;;;32.32;34.17;100731.03;5129620;22;45447;-90
2022/06/21 12:40:46;;;;;;;;;28.67;22.33;;;;;32.58;34.67;100755.03;5054686;28;45635;-91
2022/06/21 12:49:00;;;;;;;;;4.67;4.33;;;;;32.45;34.47;100760.56;5406694;22;45902;-91
2022/06/21 12:51:53;;;;;;;;;9.33;7.33;;;;;32.30;34.52;100757.13;5039429;28;45581;-90
2022/06/21 12:54:37;;;;;;;;;7.67;7.67;;;;;32.21;34.49;100755.63;5034560;28;45675;-91
2022/06/21 12:57:42;;;;;;;;;10.00;7.00;;;;;32.13;34.66;100751.16;5032704;28;45495;-91
2022/06/21 13:04:19;;;;;;;;;7.67;7.67;;;;;32.18;35.18;100765.16;5039423;28;45383;-90
2022/06/21 13:07:22;;;;;;;;;9.67;8.67;;;;;31.09;35.14;100585.03;5039292;28;46308;-92
2022/06/21 13:13:41;;;;;;;;;9.33;9.00;;;;;31.93;35.34;100756.56;4971894;28;47186;-91
2022/06/21 13:16:35;;;;;;;;;6.00;6.00;;;;;31.83;34.93;100750.63;4964568;28;45571;-92
2022/06/21 13:19:22;;;;;;;;;13.33;9.00;;;;;31.76;36.09;100748.66;4939855;28;46861;-91
2022/06/21 13:25:49;;;;;;;;;9.00;6.67;;;;;31.69;35.85;100738.69;4875107;29;45910;-91
2022/06/21 13:38:37;;;;;;;;;10.00;8.67;;;;;31.49;36.12;100724.81;4874725;29;45526;-93
2022/06/21 13:41:05;;;;;;;;;9.33;8.33;;;;;31.49;36.67;100728.44;4876765;29;45528;-93
2022/06/21 13:43:44;;;;;;;;;7.67;7.67;;;;;31.47;36.08;100729.69;4875861;29;46262;-89
2022/06/21 13:57:07;;;;;;;;;10.67;9.67;;;;;31.44;36.31;100719.91;4784135;29;46975;-89
2022/06/21 13:59:45;;;;;;;;;7.33;7.33;;;;;31.41;37.37;100701.03;4788491;29;45565;-89
2022/06/21 14:02:38;;;;;;;;;31.67;28.33;;;;;31.34;37.71;100703.75;4825869;29;45654;-84
2022/06/21 14:05:21;;;;;;;;;22.67;22.00;;;;;31.22;37.22;100683.34;4842559;29;45616;-86
2022/06/21 14:07:49;;;;;;;;;6.00;6.00;;;;;31.32;37.74;100710.50;4831760;29;45561;-86
2022/06/21 14:11:09;;;;;;;;;8.00;8.00;;;;;31.27;38.08;100704.78;5206922;23;45772;-86
2022/06/21 14:13:46;;;;;;;;;7.00;7.00;;;;;30.15;36.38;100530.44;4953060;28;45617;-86
2022/06/21 14:16:33;;;;;;;;;8.67;8.33;;;;;30.98;36.64;100687.47;4954273;28;45393;-86
2022/06/21 14:19:18;;;;;;;;;8.33;8.33;;;;;30.96;37.00;100696.97;4952102;28;45527;-86
2022/06/21 14:21:54;;;;;;;;;8.00;6.67;;;;;30.28;39.66;100579.25;4953560;28;45393;-86
2022/06/21 14:24:47;;;;;;;;;5.67;5.67;;;;;30.83;37.96;100672.91;4953153;28;45518;-87
2022/06/21 14:27:16;;;;;;;;;13.67;12.00;;;;;30.99;39.16;100689.16;4952818;28;45539;-87
2022/06/21 14:30:03;;;;;;;;;7.33;6.33;;;;;31.00;38.24;100695.50;4952949;28;45594;-86
2022/06/21 14:32:58;;;;;;;;;12.00;12.00;;;;;30.96;38.01;100685.97;4953037;28;45594;-86
2022/06/21 14:35:51;;;;;;;;;9.33;9.33;;;;;30.91;39.17;100683.81;4953012;28;45572;-86
2022/06/21 14:38:24;;;;;;;;;9.00;7.33;;;;;30.33;39.02;100609.72;4953369;28;45609;-86
2022/06/21 14:41:05;;;;;;;;;4.00;4.00;;;;;30.45;39.38;100619.13;4948675;28;45785;-86
2022/06/21 14:43:39;;;;;;;;;7.33;7.33;;;;;30.82;38.66;100682.25;4952576;28;45476;-86
2022/06/21 14:46:11;;;;;;;;;8.33;7.33;;;;;30.81;38.73;100680.53;4953233;28;45428;-86
2022/06/21 14:48:42;;;;;;;;;11.00;9.00;;;;;30.11;38.16;100575.91;4977485;28;45541;-85
2022/06/21 14:51:26;;;;;;;;;7.33;7.00;;;;;30.66;37.75;100680.66;5052819;28;45374;-85
2022/06/21 14:54:01;;;;;;;;;9.67;9.00;;;;;30.60;38.00;100668.56;5059049;28;45441;-85
2022/06/21 14:56:59;;;;;;;;;6.67;6.67;;;;;30.52;38.69;100668.69;5041174;28;45487;-85
2022/06/21 14:59:58;;;;;;;;;6.67;6.67;;;;;30.50;38.65;100666.13;5042814;28;45532;-85
2022/06/21 15:02:48;;;;;;;;;12.00;12.00;;;;;30.22;39.24;100610.25;5051259;28;45630;-85
2022/06/21 15:05:27;;;;;;;;;6.33;6.00;;;;;30.46;39.44;100647.47;5059753;28;45445;-84
2022/06/21 15:08:10;;;;;;;;;6.00;6.00;;;;;30.51;38.52;100653.25;5027670;28;45653;-85
2022/06/21 15:10:41;;;;;;;;;11.33;11.33;;;;;30.39;38.71;100621.81;5045799;28;45591;-84
2022/06/21 15:13:13;;;;;;;;;13.00;9.67;;;;;29.98;38.63;100557.41;5067030;28;45637;-86
2022/06/21 15:15:42;;;;;;;;;11.00;11.00;;;;;30.22;39.34;100594.59;5060942;28;45456;-85
2022/06/21 15:18:28;;;;;;;;;10.67;10.33;;;;;30.49;39.03;100638.84;5061042;28;45557;-85
2022/06/21 15:21:00;;;;;;;;;8.33;8.33;;;;;30.45;39.65;100626.53;5062199;28;45491;-85
2022/06/21 15:23:34;;;;;;;;;10.33;9.00;;;;;30.51;39.17;100639.50;5023588;28;48112;-85
2022/06/21 15:26:09;;;;;;;;;19.00;13.67;;;;;30.28;39.44;100610.34;5062204;28;45472;-85
2022/06/21 15:28:40;;;;;;;;;8.00;8.00;;;;;30.41;38.82;100622.47;5067715;28;45492;-85
2022/06/21 15:31:13;;;;;;;;;8.67;8.00;;;;;30.38;38.68;100633.88;5066808;28;45610;-85
2022/06/21 15:34:03;;;;;;;;;8.00;8.00;;;;;30.26;38.28;100626.19;5061550;28;47096;-84
2022/06/21 15:36:52;;;;;;;;;7.33;7.33;;;;;30.19;38.60;100621.66;5061351;28;45496;-85
2022/06/21 15:39:50;;;;;;;;;9.00;9.00;;;;;30.04;38.97;100603.34;5068350;28;45592;-82
2022/06/21 15:42:16;;;;;;;;;7.00;7.00;;;;;30.11;38.90;100619.03;5057145;28;46072;-82
2022/06/21 15:44:57;;;;;;;;;9.67;7.33;;;;;30.06;39.73;100617.75;5062449;28;45548;-83
2022/06/21 15:50:34;;;;;;;;;8.67;8.67;;;;;30.00;39.19;100615.78;5068669;28;45495;-81
2022/06/21 15:53:12;;;;;;;;;7.33;7.33;;;;;29.98;39.05;100609.63;5056244;28;45515;-82
2022/06/21 15:55:51;;;;;;;;;6.33;6.33;;;;;29.80;39.33;100584.50;5055439;28;47218;-82
2022/06/21 15:58:38;;;;;;;;;7.33;6.00;;;;;29.94;39.89;100613.81;5068350;28;45456;-82
2022/06/21 16:01:12;;;;;;;;;7.00;7.00;;;;;29.65;40.70;100562.56;5056660;28;45472;-82
2022/06/21 16:03:45;;;;;;;;;6.00;6.00;;;;;29.98;40.10;100608.78;5059884;28;45576;-82
2022/06/21 16:06:26;;;;;;;;;6.67;6.67;;;;;30.04;40.31;100616.22;5059866;28;47107;-82
2022/06/21 16:09:00;;;;;;;;;7.33;6.00;;;;;30.06;39.74;100615.00;5047369;28;45337;-82
2022/06/21 16:11:29;;;;;;;;;7.67;7.67;;;;;29.71;40.11;100547.22;5043514;28;45362;-82
2022/06/21 16:13:58;;;;;;;;;8.67;5.67;;;;;30.06;41.18;100611.38;5065743;28;45539;-83
2022/06/21 16:16:37;;;;;;;;;7.67;5.67;;;;;30.11;41.26;100613.53;5067375;28;46566;-85
2022/06/21 16:19:07;;;;;;;;;4.67;4.67;;;;;29.93;39.14;100575.53;5066093;28;45410;-83
2022/06/21 16:21:36;;;;;;;;;8.00;8.00;;;;;30.04;38.95;100608.84;5052070;28;48549;-84
2022/06/21 16:24:11;;;;;;;;;6.00;6.00;;;;;30.00;39.32;100603.94;5054149;28;45620;-82
2022/06/21 16:26:51;;;;;;;;;6.00;6.00;;;;;29.91;39.10;100602.38;5064626;28;46199;-83
2022/06/21 16:29:45;;;;;;;;;7.00;7.00;;;;;29.79;39.20;100597.41;5053449;28;45378;-82
2022/06/21 16:35:30;;;;;;;;;6.00;6.00;;;;;29.29;40.37;100554.38;5052642;28;45232;-85
2022/06/21 16:38:03;;;;;;;;;8.33;8.00;;;;;29.51;39.64;100596.44;5049543;28;46176;-83
2022/06/21 16:43:28;;;;;;;;;6.00;6.00;;;;;29.42;40.66;100606.69;5063546;28;45693;-85
2022/06/21 16:46:02;;;;;;;;;7.00;5.33;;;;;29.42;40.61;100617.69;5055125;28;45453;-86
2022/06/21 16:48:37;;;;;;;;;6.00;6.00;;;;;28.99;41.74;100548.94;5059530;28;47589;-94
2022/06/21 16:51:29;;;;;;;;;6.67;6.33;;;;;28.99;42.32;100565.41;5062463;28;47837;-92
2022/06/21 16:53:57;;;;;;;;;6.67;6.33;;;;;28.79;41.90;100530.31;5054582;28;45488;-87
2022/06/21 16:56:31;;;;;;;;;6.00;6.00;;;;;28.46;41.80;100490.63;5061709;28;45542;-96
2022/06/21 16:59:19;;;;;;;;;8.00;8.00;;;;;29.19;42.76;100617.81;5061833;28;46355;-90
2022/06/21 17:01:48;;;;;;;;;8.00;8.00;;;;;28.08;41.45;100455.94;5046319;28;45377;-90
2022/06/21 17:04:25;;;;;;;;;7.00;7.00;;;;;28.30;42.15;100491.66;5061746;28;45452;-94
2022/06/21 17:07:09;;;;;;;;;8.00;6.67;;;;;29.06;42.74;100629.47;5051862;28;45614;-89
2022/06/21 17:09:35;;;;;;;;;8.00;8.00;;;;;29.03;42.02;100629.81;5065831;28;46670;-95
2022/06/21 17:12:08;;;;;;;;;7.67;7.00;;;;;28.97;41.00;100631.47;5060831;28;45506;-91
2022/06/21 17:14:39;;;;;;;;;8.00;8.00;;;;;28.95;41.53;100629.94;5046634;28;45510;-94
2022/06/21 17:17:10;;;;;;;;;7.33;5.33;;;;;28.49;41.81;100573.38;5038952;28;45866;-87
2022/06/21 17:19:43;;;;;;;;;12.00;8.00;;;;;28.92;42.77;100633.09;5047988;28;48385;-84
2022/06/21 17:22:23;;;;;;;;;8.33;7.00;;;;;28.91;42.06;100632.19;5050948;28;45468;-85
2022/06/21 17:24:55;;;;;;;;;7.67;6.67;;;;;28.90;42.53;100637.91;5048488;28;45511;-89
2022/06/21 17:27:41;;;;;;;;;7.33;7.00;;;;;28.93;41.77;100640.25;5045230;28;45585;-87
2022/06/21 17:30:19;;;;;;;;;6.67;6.67;;;;;28.94;41.70;100639.19;5045528;28;46664;-88
2022/06/21 17:32:47;;;;;;;;;6.33;6.33;;;;;28.92;41.15;100638.56;5041537;28;45441;-88
2022/06/21 17:35:23;;;;;;;;;5.67;5.67;;;;;28.84;43.08;100636.75;5073761;22;45405;-96
2022/06/21 17:38:04;;;;;;;;;5.00;4.00;;;;;28.88;41.98;100639.97;5026317;28;45397;-92
2022/06/21 17:40:41;;;;;;;;;7.00;7.00;;;;;28.83;42.05;100649.63;5035501;28;45434;-90
2022/06/21 17:50:27;;;;;;;;;8.00;6.67;;;;;28.71;41.14;100634.69;5173809;22;45748;-93
2022/06/21 17:53:44;;;;;;;;;5.00;5.00;;;;;28.63;40.36;100626.53;5011397;28;48273;-91
2022/06/21 17:56:42;;;;;;;;;6.33;6.33;;;;;28.59;41.91;100612.34;4935800;28;45642;-94
2022/06/21 18:03:20;;;;;;;;;8.00;6.00;;;;;28.55;42.82;100597.31;4963001;23;45573;-90
2022/06/21 18:06:04;;;;;;;;;5.67;5.67;;;;;28.05;41.24;100523.97;4970901;28;46416;-90
2022/06/21 18:08:43;;;;;;;;;5.00;5.00;;;;;28.36;41.16;100590.47;4973467;28;45605;-88
2022/06/21 18:11:37;;;;;;;;;5.33;5.00;;;;;28.47;40.65;100602.91;4974297;28;45467;-94
2022/06/21 18:14:22;;;;;;;;;7.67;5.00;;;;;28.43;40.36;100601.53;4975714;28;45913;-89
2022/06/21 18:17:06;;;;;;;;;5.67;5.67;;;;;28.13;40.60;100557.63;4972303;28;45917;-88
2022/06/21 18:19:50;;;;;;;;;4.00;4.00;;;;;27.69;40.70;100492.59;4967886;28;45506;-92
2022/06/21 18:22:40;;;;;;;;;5.00;4.67;;;;;28.38;40.92;100612.22;4968159;28;45923;-85
2022/06/21 18:25:38;;;;;;;;;5.67;5.67;;;;;28.35;40.48;100618.03;4971965;28;45400;-81
2022/06/21 18:28:09;;;;;;;;;6.33;5.33;;;;;28.33;40.25;100628.34;4971963;28;46658;-85
2022/06/21 18:30:45;;;;;;;;;6.00;6.00;;;;;28.29;39.84;100629.78;4969723;28;45602;-80
2022/06/21 18:33:13;;;;;;;;;3.00;3.00;;;;;28.11;39.74;100610.91;4977401;28;45523;-93
2022/06/21 18:35:49;;;;;;;;;4.33;4.00;;;;;28.23;39.45;100639.56;4972088;28;45758;-84
2022/06/21 18:38:33;;;;;;;;;4.33;4.33;;;;;28.19;39.70;100658.28;4972991;28;46689;-88
2022/06/21 18:41:11;;;;;;;;;5.00;5.00;;;;;28.00;39.86;100623.16;5055612;28;45552;-84
2022/06/21 18:44:06;;;;;;;;;5.00;3.33;;;;;28.13;39.56;100648.06;5055117;28;45599;-97
2022/06/21 18:47:05;;;;;;;;;4.33;4.33;;;;;28.12;39.79;100656.47;5062222;28;45551;-90
2022/06/21 18:49:45;;;;;;;;;4.33;4.33;;;;;28.10;39.90;100648.44;5050715;28;47440;-86
2022/06/21 18:52:29;;;;;;;;;7.00;7.00;;;;;28.08;39.41;100657.88;5057662;28;45438;-85
2022/06/21 18:55:08;;;;;;;;;3.67;3.00;;;;;28.04;39.36;100673.81;5056997;28;45449;-85
2022/06/21 18:58:04;;;;;;;;;4.67;4.67;;;;;27.77;39.41;100626.75;5060535;28;45374;-85
2022/06/21 19:00:35;;;;;;;;;4.00;4.00;;;;;27.91;39.13;100663.50;5057966;28;46271;-91
2022/06/21 19:03:13;;;;;;;;;4.00;4.00;;;;;27.97;39.58;100673.69;5062738;28;45419;-88
2022/06/21 19:08:54;;;;;;;;;4.33;4.33;;;;;27.44;39.46;100595.13;5059570;28;45460;-86
2022/06/21 19:11:40;;;;;;;;;6.67;6.67;;;;;27.89;39.19;100676.50;5058636;28;46570;-89
2022/06/21 19:14:49;;;;;;;;;5.00;5.00;;;;;27.62;39.66;100638.66;5057051;28;45398;-94
2022/06/21 19:17:35;;;;;;;;;4.00;4.00;;;;;27.30;39.27;100599.47;5105085;22;46267;-84
2022/06/21 19:20:26;;;;;;;;;7.00;5.00;;;;;27.80;40.03;100680.31;5053829;28;45441;-92
2022/06/21 19:22:54;;;;;;;;;7.67;6.00;;;;;27.79;39.72;100673.09;5056960;28;46492;-96
2022/06/21 19:25:45;;;;;;;;;5.00;5.00;;;;;27.68;39.87;100662.59;5070689;28;45382;-96
2022/06/21 19:28:33;;;;;;;;;5.00;5.00;;;;;27.71;39.67;100684.97;5043612;28;45390;-95
2022/06/21 19:31:27;;;;;;;;;4.67;4.67;;;;;27.68;39.03;100699.03;5059804;28;45568;-93
2022/06/21 19:34:11;;;;;;;;;8.67;6.00;;;;;27.64;38.88;100705.06;5051540;28;47091;-95
2022/06/21 19:37:07;;;;;;;;;7.00;6.00;;;;;27.60;38.94;100706.44;5053007;28;45513;-92
2022/06/21 19:39:47;;;;;;;;;4.00;4.00;;;;;27.37;38.64;100671.66;5033973;28;45528;-92
2022/06/21 19:42:26;;;;;;;;;5.33;5.33;;;;;27.52;38.45;100712.81;5064118;28;45618;-85
2022/06/21 19:45:36;;;;;;;;;6.50;5.50;;;;;27.46;38.01;100717.09;5046995;28;45472;-88
2022/06/21 19:48:07;;;;;;;;;6.00;6.00;;;;;27.44;38.36;100713.72;5141314;22;46362;-87
2022/06/21 19:50:39;;;;;;;;;6.00;5.00;;;;;27.01;38.09;100666.63;5059707;28;45433;-86
2022/06/21 19:56:31;;;;;;;;;8.00;6.33;;;;;27.30;38.32;100728.13;5040490;28;45529;-87
2022/06/21 19:59:38;;;;;;;;;;;;;;;;;;;;;
2022/06/21 20:02:12;;;;;;;;;5.00;5.00;;;;;27.10;38.07;100705.78;5051185;28;68890;-86
2022/06/21 20:05:00;;;;;;;;;5.00;5.00;;;;;26.48;37.91;100595.16;5056283;28;45650;-86
2022/06/21 20:07:53;;;;;;;;;6.33;6.33;;;;;27.09;37.96;100709.53;5059437;28;46193;-86
2022/06/21 20:11:00;;;;;;;;;5.33;5.00;;;;;27.04;38.12;100706.47;5052593;28;45389;-87
2022/06/21 20:13:34;;;;;;;;;4.67;4.67;;;;;27.00;38.07;100702.41;5058790;28;45441;-87
2022/06/21 20:16:11;;;;;;;;;5.00;4.33;;;;;26.52;38.32;100636.66;5059381;28;45402;-87
2022/06/21 20:19:13;;;;;;;;;5.00;5.00;;;;;26.92;38.28;100711.44;5052977;28;45539;-86
2022/06/21 20:21:46;;;;;;;;;7.00;6.00;;;;;26.79;38.47;100694.75;5041905;28;45783;-87
2022/06/21 20:24:30;;;;;;;;;4.67;4.67;;;;;26.82;37.70;100708.91;5053368;28;45445;-86
2022/06/21 20:27:32;;;;;;;;;6.00;5.00;;;;;26.79;37.95;100725.69;5046877;28;45266;-86
2022/06/21 20:30:16;;;;;;;;;7.33;5.67;;;;;26.26;38.26;100645.91;5046131;28;46354;-86
2022/06/21 20:33:08;;;;;;;;;5.00;5.00;;;;;25.70;38.49;100557.47;5053374;28;45482;-86
2022/06/21 20:35:38;;;;;;;;;5.00;5.00;;;;;26.49;38.00;100691.69;5015494;28;45385;-86
2022/06/21 20:38:08;;;;;;;;;5.33;5.33;;;;;25.83;38.81;100589.72;5041258;28;45704;-87
2022/06/21 20:40:53;;;;;;;;;5.33;5.33;;;;;26.29;38.96;100663.84;5039057;28;48163;-87
2022/06/21 20:43:24;;;;;;;;;5.00;5.00;;;;;26.33;38.89;100684.34;5052588;28;45555;-85
2022/06/21 20:45:59;;;;;;;;;5.00;5.00;;;;;26.41;38.39;100700.75;5058685;28;45514;-85
2022/06/21 20:48:35;;;;;;;;;6.00;6.00;;;;;26.29;38.58;100685.69;5055245;28;45519;-86
2022/06/21 20:51:21;;;;;;;;;5.00;5.00;;;;;26.49;38.25;100721.75;5055362;28;45506;-86
2022/06/21 20:54:02;;;;;;;;;5.67;5.67;;;;;26.45;38.49;100725.84;5045067;28;45395;-86
2022/06/21 20:56:32;;;;;;;;;5.00;4.67;;;;;26.34;37.88;100713.38;5049702;28;45404;-85
2022/06/21 20:59:11;;;;;;;;;6.33;5.00;;;;;26.30;38.03;100721.06;5034796;28;45518;-86
2022/06/21 21:01:42;;;;;;;;;4.33;4.33;;;;;26.35;38.36;100723.28;5037100;28;48381;-86
2022/06/21 21:04:24;;;;;;;;;4.33;4.33;;;;;25.95;37.76;100670.31;5056021;28;45497;-86
2022/06/21 21:06:53;;;;;;;;;5.67;5.00;;;;;25.93;37.83;100666.06;5055974;28;45425;-86
2022/06/21 21:09:25;;;;;;;;;3.00;3.00;;;;;26.23;37.86;100739.16;5052190;28;45579;-86
2022/06/21 21:11:53;;;;;;;;;6.67;5.33;;;;;25.86;37.63;100684.97;5060044;28;46656;-84
2022/06/21 21:14:27;;;;;;;;;3.33;2.33;;;;;25.45;37.74;100641.19;5058949;28;45477;-82
2022/06/21 21:17:00;;;;;;;;;4.33;4.33;;;;;25.69;37.42;100687.66;5055998;28;45501;-86
2022/06/21 21:19:33;;;;;;;;;4.67;4.67;;;;;24.79;38.00;100542.75;5058328;28;46717;-87
2022/06/21 21:25:48;;;;;;;;;4.67;3.33;;;;;26.01;37.83;100746.16;4904364;28;45505;-86
2022/06/21 21:28:17;;;;;;;;;3.00;3.00;;;;;25.05;37.35;100588.16;4893900;28;45591;-86
2022/06/21 21:31:10;;;;;;;;;3.67;3.67;;;;;25.95;37.37;100740.50;4898468;28;45782;-87
2022/06/21 21:34:18;;;;;;;;;6.00;5.00;;;;;25.90;37.83;100743.72;4907416;28;45763;-87
2022/06/21 21:37:03;;;;;;;;;5.33;5.00;;;;;25.85;37.82;100757.00;4903605;28;45725;-87
2022/06/21 21:39:51;;;;;;;;;5.67;5.67;;;;;25.80;37.69;100752.03;4903283;28;45941;-86
2022/06/21 21:42:19;;;;;;;;;4.00;4.00;;;;;25.79;38.10;100753.03;4893460;28;45555;-86
2022/06/21 21:45:10;;;;;;;;;7.67;5.00;;;;;24.49;37.72;100548.75;4909545;28;46525;-93
2022/06/21 21:47:41;;;;;;;;;5.00;5.00;;;;;25.74;37.73;100757.28;4902837;28;45413;-82